createdAt,value
2019-02-10T00:01:47.643Z,5.71
2019-02-10T00:04:15.035Z,5.70
2019-02-10T00:06:42.457Z,5.68
2019-02-10T00:09:09.922Z,5.68
2019-02-10T00:11:37.291Z,5.74
2019-02-10T00:14:04.755Z,5.64
2019-02-10T00:16:32.280Z,5.58
2019-02-10T00:18:59.736Z,5.58
2019-02-10T00:21:27.093Z,5.65
2019-02-10T00:23:54.467Z,5.58
2019-02-10T00:26:21.934Z,5.54
2019-02-10T00:28:49.295Z,5.54
2019-02-10T00:31:17.095Z,5.54
2019-02-10T00:33:44.541Z,5.47
2019-02-10T00:36:11.959Z,5.52
2019-02-10T00:38:39.316Z,5.45
2019-02-10T00:41:06.718Z,5.51
2019-02-10T00:43:34.086Z,5.49
2019-02-10T00:46:01.439Z,5.51
2019-02-10T00:48:28.846Z,5.53
2019-02-10T00:50:56.227Z,5.56
2019-02-10T00:53:23.720Z,5.52
2019-02-10T00:55:51.162Z,5.46
2019-02-10T00:58:18.579Z,5.51
2019-02-10T01:00:45.980Z,5.49
2019-02-10T01:03:14.123Z,5.46
2019-02-10T01:05:41.474Z,5.47
2019-02-10T01:08:08.923Z,5.46
2019-02-10T01:10:36.428Z,5.44
2019-02-10T01:13:04.157Z,5.41
2019-02-10T01:15:31.545Z,5.44
2019-02-10T01:17:58.958Z,5.51
2019-02-10T01:20:26.374Z,5.48
2019-02-10T01:22:53.807Z,5.53
2019-02-10T01:25:21.205Z,5.54
2019-02-10T01:27:48.592Z,5.52
2019-02-10T01:30:15.987Z,5.51
2019-02-10T01:32:43.349Z,5.55
2019-02-10T01:35:11.265Z,5.57
2019-02-10T01:37:38.761Z,5.50
2019-02-10T01:40:06.862Z,5.54
2019-02-10T01:42:34.304Z,5.47
2019-02-10T01:45:01.679Z,5.48
2019-02-10T01:47:29.179Z,5.44
2019-02-10T01:49:56.571Z,5.44
2019-02-10T01:52:23.951Z,5.40
2019-02-10T01:54:51.341Z,5.36
2019-02-10T01:57:18.754Z,5.34
2019-02-10T01:59:46.207Z,5.32
2019-02-10T02:02:13.576Z,5.39
2019-02-10T02:04:41.534Z,5.47
2019-02-10T02:07:08.941Z,5.50
2019-02-10T02:09:36.394Z,5.52
2019-02-10T02:12:04.974Z,5.55
2019-02-10T02:14:32.370Z,5.62
2019-02-10T02:16:59.728Z,5.61
2019-02-10T02:19:27.223Z,5.64
2019-02-10T02:21:54.594Z,5.68
2019-02-10T02:24:22.314Z,5.77
2019-02-10T02:26:49.703Z,5.80
2019-02-10T02:29:17.131Z,5.83
2019-02-10T02:31:44.543Z,5.88
2019-02-10T02:34:11.916Z,5.83
2019-02-10T02:36:42.160Z,5.85
2019-02-10T02:39:09.738Z,5.93
2019-02-10T02:41:37.107Z,5.93
2019-02-10T02:44:04.607Z,5.89
2019-02-10T02:46:31.963Z,5.95
2019-02-10T02:48:59.334Z,6.02
2019-02-10T02:51:26.743Z,5.92
2019-02-10T02:53:54.103Z,5.95
2019-02-10T02:56:21.555Z,6.01
2019-02-10T02:58:48.939Z,6.00
2019-02-10T03:01:16.310Z,5.97
2019-02-10T03:03:43.673Z,5.95
2019-02-10T03:06:11.167Z,6.03
2019-02-10T03:08:38.615Z,6.05
2019-02-10T03:11:06.149Z,6.13
2019-02-10T03:13:33.610Z,6.15
2019-02-10T03:16:01.034Z,6.15
2019-02-10T03:18:28.427Z,6.15
2019-02-10T03:20:55.915Z,6.15
2019-02-10T03:23:23.374Z,6.17
2019-02-10T03:25:50.799Z,6.23
2019-02-10T03:28:18.157Z,6.19
2019-02-10T03:30:45.556Z,6.19
2019-02-10T03:33:13.043Z,6.22
2019-02-10T03:35:40.491Z,6.31
2019-02-10T03:38:07.918Z,6.48
2019-02-10T03:40:35.319Z,6.47
2019-02-10T03:43:02.776Z,6.50
2019-02-10T03:45:30.122Z,6.53
2019-02-10T03:47:57.518Z,6.56
2019-02-10T03:50:24.882Z,6.50
2019-02-10T03:52:52.277Z,6.49
2019-02-10T03:55:19.665Z,6.46
2019-02-10T03:57:47.119Z,6.45
2019-02-10T04:00:14.586Z,6.42
2019-02-10T04:02:42.050Z,6.41
2019-02-10T04:05:09.421Z,6.33
2019-02-10T04:07:36.801Z,6.28
2019-02-10T04:10:04.302Z,6.24
2019-02-10T04:12:31.668Z,6.26
2019-02-10T04:14:59.151Z,6.19
2019-02-10T04:17:26.549Z,6.27
2019-02-10T04:19:53.951Z,6.25
2019-02-10T04:22:21.397Z,6.26
2019-02-10T04:24:48.754Z,6.24
2019-02-10T04:27:16.113Z,6.31
2019-02-10T04:29:43.521Z,6.22
2019-02-10T04:32:10.880Z,6.18
2019-02-10T04:34:38.244Z,6.15
2019-02-10T04:37:05.626Z,6.08
2019-02-10T04:39:32.998Z,6.02
2019-02-10T04:42:00.491Z,6.02
2019-02-10T04:44:27.947Z,6.12
2019-02-10T04:46:55.307Z,6.08
2019-02-10T04:49:22.759Z,6.13
2019-02-10T04:51:50.278Z,6.01
2019-02-10T04:54:17.646Z,6.02
2019-02-10T04:56:45.108Z,6.00
2019-02-10T04:59:12.490Z,5.92
2019-02-10T05:01:39.851Z,5.87
2019-02-10T05:04:07.274Z,5.83
2019-02-10T05:06:34.735Z,5.81
2019-02-10T05:09:03.698Z,5.84
2019-02-10T05:11:31.089Z,5.90
2019-02-10T05:13:58.463Z,5.89
2019-02-10T05:16:25.859Z,5.90
2019-02-10T05:18:53.262Z,5.89
2019-02-10T05:21:20.821Z,5.87
2019-02-10T05:23:48.431Z,5.89
2019-02-10T05:26:15.811Z,5.97
2019-02-10T05:28:43.165Z,5.94
2019-02-10T05:31:10.688Z,5.95
2019-02-10T05:33:38.028Z,6.07
2019-02-10T05:36:05.704Z,6.13
2019-02-10T05:38:33.054Z,6.17
2019-02-10T05:41:00.452Z,6.19
2019-02-10T05:43:27.865Z,6.27
2019-02-10T05:45:55.223Z,6.27
2019-02-10T05:48:22.676Z,6.30
2019-02-10T05:50:50.067Z,6.27
2019-02-10T05:53:17.520Z,6.33
2019-02-10T05:55:44.914Z,6.31
2019-02-10T05:58:12.353Z,6.25
2019-02-10T06:00:39.843Z,6.29
2019-02-10T06:03:07.313Z,6.27
2019-02-10T06:05:34.753Z,6.34
2019-02-10T06:08:02.144Z,6.43
2019-02-10T06:10:29.525Z,6.41
2019-02-10T06:12:56.914Z,6.49
2019-02-10T06:15:24.266Z,6.53
2019-02-10T06:17:51.627Z,6.52
2019-02-10T06:20:19.233Z,6.53
2019-02-10T06:22:46.586Z,6.56
2019-02-10T06:25:14.519Z,6.61
2019-02-10T06:27:41.921Z,6.63
2019-02-10T06:30:09.742Z,6.69
2019-02-10T06:32:37.153Z,6.76
2019-02-10T06:35:05.052Z,6.70
2019-02-10T06:37:32.488Z,6.73
2019-02-10T06:39:59.873Z,6.70
2019-02-10T06:42:27.262Z,6.76
2019-02-10T06:44:54.639Z,6.75
2019-02-10T06:47:22.081Z,6.79
2019-02-10T06:49:49.535Z,6.97
2019-02-10T06:52:18.699Z,6.99
2019-02-10T06:54:56.761Z,6.94
2019-02-10T06:57:24.850Z,6.98
2019-02-10T07:00:17.814Z,7.12
2019-02-10T07:03:08.391Z,7.18
2019-02-10T07:05:35.779Z,7.29
2019-02-10T07:08:03.136Z,7.31
2019-02-10T07:10:31.719Z,7.33
2019-02-10T07:12:59.127Z,7.39
2019-02-10T07:15:47.134Z,7.42
2019-02-10T07:18:32.585Z,7.41
2019-02-10T07:21:00.058Z,7.52
2019-02-10T07:24:05.398Z,7.37
2019-02-10T07:26:58.080Z,7.47
2019-02-10T07:29:43.720Z,7.60
2019-02-10T07:32:31.896Z,7.59
2019-02-10T07:35:04.618Z,7.60
2019-02-10T07:37:37.774Z,7.68
2019-02-10T07:40:24.644Z,7.65
2019-02-10T07:43:18.002Z,7.71
2019-02-10T07:46:07.850Z,7.82
2019-02-10T07:48:38.064Z,7.90
2019-02-10T07:51:43.132Z,8.05
2019-02-10T07:54:16.087Z,8.06
2019-02-10T07:57:05.823Z,8.05
2019-02-10T07:59:51.684Z,8.05
2019-02-10T08:02:56.694Z,7.97
2019-02-10T08:05:35.196Z,7.91
2019-02-10T08:08:22.165Z,7.90
2019-02-10T08:11:12.134Z,7.84
2019-02-10T08:13:45.878Z,7.76
2019-02-10T08:16:20.842Z,7.79
2019-02-10T08:19:14.146Z,7.79
2019-02-10T08:21:54.908Z,7.77
2019-02-10T08:24:27.507Z,7.75
2019-02-10T08:26:59.767Z,7.85
2019-02-10T08:29:30.237Z,7.86
2019-02-10T08:32:35.570Z,8.02
2019-02-10T08:35:06.936Z,8.03
2019-02-10T08:37:42.006Z,8.13
2019-02-10T08:40:31.003Z,8.20
2019-02-10T08:43:24.422Z,8.20
2019-02-10T08:46:13.136Z,8.17
2019-02-10T08:48:49.491Z,8.17
2019-02-10T08:51:36.422Z,8.05
2019-02-10T08:54:04.166Z,7.95
2019-02-10T08:56:31.622Z,7.93
2019-02-10T08:58:59.019Z,7.94
2019-02-10T09:01:26.486Z,7.95
2019-02-10T09:03:53.976Z,7.86
2019-02-10T09:06:21.452Z,7.96
2019-02-10T09:08:48.816Z,7.98
2019-02-10T09:11:16.338Z,8.08
2019-02-10T09:13:43.846Z,8.14
2019-02-10T09:16:11.227Z,8.13
2019-02-10T09:18:38.627Z,8.17
2019-02-10T09:21:06.071Z,8.03
2019-02-10T09:23:33.452Z,8.02
2019-02-10T09:26:00.840Z,7.95
2019-02-10T09:28:28.269Z,8.10
2019-02-10T09:30:55.686Z,8.16
2019-02-10T09:33:23.097Z,8.18
2019-02-10T09:35:50.493Z,8.32
2019-02-10T09:38:17.919Z,8.43
2019-02-10T09:40:45.374Z,8.52
2019-02-10T09:43:12.791Z,8.69
2019-02-10T09:45:40.208Z,8.73
2019-02-10T09:48:07.768Z,8.74
2019-02-10T09:50:35.233Z,8.62
2019-02-10T09:53:02.630Z,8.67
2019-02-10T09:55:30.047Z,8.63
2019-02-10T09:57:57.498Z,8.75
2019-02-10T10:00:24.925Z,8.80
2019-02-10T10:02:52.403Z,8.79
2019-02-10T10:05:19.977Z,8.78
2019-02-10T10:07:47.520Z,8.83
2019-02-10T10:10:15.052Z,8.79
2019-02-10T10:12:42.807Z,8.80
2019-02-10T10:15:11.199Z,8.76
2019-02-10T10:17:38.613Z,8.82
2019-02-10T10:20:07.133Z,8.76
2019-02-10T10:22:34.649Z,8.75
2019-02-10T10:25:02.074Z,8.79
2019-02-10T10:27:29.478Z,8.85
2019-02-10T10:29:56.900Z,8.84
2019-02-10T10:32:24.273Z,8.92
2019-02-10T10:34:51.693Z,9.01
2019-02-10T10:37:19.219Z,9.02
2019-02-10T10:39:46.654Z,9.03
2019-02-10T10:42:14.090Z,9.10
2019-02-10T10:44:41.614Z,9.14
2019-02-10T10:47:09.061Z,9.26
2019-02-10T10:49:36.586Z,9.25
2019-02-10T10:52:04.020Z,9.29
2019-02-10T10:54:31.754Z,9.33
2019-02-10T10:56:59.281Z,9.45
2019-02-10T10:59:26.791Z,9.52
2019-02-10T11:01:54.271Z,9.50
2019-02-10T11:04:21.758Z,9.67
2019-02-10T11:06:49.242Z,9.70
2019-02-10T11:09:16.768Z,9.76
2019-02-10T11:11:44.285Z,9.81
2019-02-10T11:14:11.761Z,9.75
2019-02-10T11:16:39.276Z,9.78
2019-02-10T11:19:06.696Z,9.98
2019-02-10T11:21:34.214Z,10.23
2019-02-10T11:24:01.999Z,10.17
2019-02-10T11:26:29.576Z,10.12
2019-02-10T11:28:57.079Z,10.24
2019-02-10T11:31:24.549Z,10.22
2019-02-10T11:33:51.938Z,10.17
2019-02-10T11:36:19.358Z,10.18
2019-02-10T11:38:46.901Z,10.12
2019-02-10T11:41:14.405Z,10.29
2019-02-10T11:43:41.931Z,10.32
2019-02-10T11:46:09.430Z,10.25
2019-02-10T11:48:37.078Z,10.25
2019-02-10T11:51:04.491Z,10.16
2019-02-10T11:53:31.879Z,10.19
2019-02-10T11:55:59.318Z,10.35
2019-02-10T11:58:26.754Z,10.25
2019-02-10T12:00:54.226Z,10.41
2019-02-10T12:03:21.623Z,10.53
2019-02-10T12:05:49.232Z,10.58
2019-02-10T12:08:16.713Z,10.56
2019-02-10T12:10:44.130Z,10.71
2019-02-10T12:13:11.621Z,10.80
2019-02-10T12:15:39.106Z,10.90
2019-02-10T12:18:06.527Z,10.95
2019-02-10T12:20:34.015Z,10.74
2019-02-10T12:23:01.391Z,10.68
2019-02-10T12:25:28.843Z,10.59
2019-02-10T12:27:56.549Z,10.60
2019-02-10T12:30:23.961Z,10.44
2019-02-10T12:32:51.450Z,10.33
2019-02-10T12:35:19.584Z,10.19
2019-02-10T12:37:46.959Z,10.25
2019-02-10T12:40:14.612Z,10.13
2019-02-10T12:42:42.049Z,10.12
2019-02-10T12:45:09.625Z,10.04
2019-02-10T12:47:37.284Z,10.03
2019-02-10T12:50:05.127Z,9.88
2019-02-10T12:52:33.771Z,9.82
2019-02-10T12:55:01.727Z,9.75
2019-02-10T12:57:29.607Z,9.77
2019-02-10T12:59:57.516Z,9.58
2019-02-10T13:02:25.365Z,9.46
2019-02-10T13:04:53.639Z,9.37
2019-02-10T13:07:21.899Z,9.08
2019-02-10T13:09:49.753Z,9.06
2019-02-10T13:12:17.673Z,9.00
2019-02-10T13:14:45.600Z,8.91
2019-02-10T13:17:13.544Z,8.81
2019-02-10T13:19:41.446Z,8.65
2019-02-10T13:22:09.403Z,8.52
2019-02-10T13:24:37.329Z,8.43
2019-02-10T13:27:05.429Z,8.21
2019-02-10T13:29:33.311Z,8.04
2019-02-10T13:32:01.248Z,7.96
2019-02-10T13:34:29.312Z,7.86
2019-02-10T13:36:57.175Z,7.74
2019-02-10T13:39:25.305Z,7.56
2019-02-10T13:41:51.620Z,7.58
2019-02-10T13:44:19.609Z,7.42
2019-02-10T13:46:47.557Z,7.44
2019-02-10T13:49:15.476Z,7.47
2019-02-10T13:51:43.427Z,7.39
2019-02-10T13:54:11.394Z,7.32
2019-02-10T13:56:39.355Z,7.24
2019-02-10T13:59:07.404Z,7.10
2019-02-10T14:01:35.369Z,7.03
2019-02-10T14:04:03.666Z,7.01
2019-02-10T14:06:31.674Z,6.97
2019-02-10T14:08:59.609Z,6.89
2019-02-10T14:11:27.569Z,6.87
2019-02-10T14:13:55.480Z,6.83
2019-02-10T14:16:23.346Z,6.80
2019-02-10T14:18:51.263Z,6.74
2019-02-10T14:21:19.219Z,6.70
2019-02-10T14:23:47.244Z,6.70
2019-02-10T14:26:15.232Z,6.72
2019-02-10T14:28:43.237Z,6.63
2019-02-10T14:31:11.149Z,6.63
2019-02-10T14:33:39.267Z,6.58
2019-02-10T14:36:07.152Z,6.61
2019-02-10T14:38:36.173Z,6.57
2019-02-10T14:41:04.576Z,6.62
2019-02-10T14:43:32.554Z,6.66
2019-02-10T14:46:03.151Z,6.59
2019-02-10T14:48:31.162Z,6.61
2019-02-10T14:50:59.120Z,6.58
2019-02-10T14:53:27.109Z,6.57
2019-02-10T14:55:55.029Z,6.60
2019-02-10T14:58:22.926Z,6.55
2019-02-10T15:00:50.883Z,6.50
2019-02-10T15:03:18.838Z,6.59
2019-02-10T15:05:47.072Z,6.57
2019-02-10T15:08:15.028Z,6.60
2019-02-10T15:10:42.990Z,6.57
2019-02-10T15:13:11.295Z,6.47
2019-02-10T15:15:39.206Z,6.54
2019-02-10T15:18:07.164Z,6.53
2019-02-10T15:20:35.255Z,6.60
2019-02-10T15:23:03.247Z,6.61
2019-02-10T15:25:31.134Z,6.70
2019-02-10T15:27:59.146Z,6.73
2019-02-10T15:30:27.225Z,6.74
2019-02-10T15:32:55.193Z,6.61
2019-02-10T15:35:23.707Z,6.51
2019-02-10T15:37:51.771Z,6.37
2019-02-10T15:40:19.730Z,6.40
2019-02-10T15:42:47.719Z,6.35
2019-02-10T15:45:15.708Z,6.35
2019-02-10T15:47:43.715Z,6.37
2019-02-10T15:50:11.704Z,6.23
2019-02-10T15:52:39.765Z,6.19
2019-02-10T15:55:09.049Z,6.22
2019-02-10T15:57:36.985Z,6.17
2019-02-10T16:00:09.078Z,6.21
2019-02-10T16:02:37.144Z,6.21
2019-02-10T16:05:05.332Z,6.18
2019-02-10T16:07:33.212Z,6.16
2019-02-10T16:10:01.080Z,5.99
2019-02-10T16:12:29.081Z,5.89
2019-02-10T16:14:56.958Z,5.78
2019-02-10T16:17:24.921Z,5.74
2019-02-10T16:19:52.831Z,5.65
2019-02-10T16:22:21.527Z,5.56
2019-02-10T16:24:49.521Z,5.50
2019-02-10T16:27:17.475Z,5.44
2019-02-10T16:29:45.409Z,5.46
2019-02-10T16:32:13.331Z,5.43
2019-02-10T16:34:41.215Z,5.38
2019-02-10T16:37:09.174Z,5.45
2019-02-10T16:39:37.105Z,5.42
2019-02-10T16:42:27.426Z,5.33
2019-02-10T16:44:55.785Z,5.29
2019-02-10T16:47:23.757Z,5.16
2019-02-10T16:49:51.726Z,5.21
2019-02-10T16:52:19.732Z,5.26
2019-02-10T16:54:47.644Z,5.16
2019-02-10T16:57:15.577Z,5.12
2019-02-10T16:59:46.186Z,5.00
2019-02-10T17:02:14.048Z,4.98
2019-02-10T17:04:41.936Z,4.90
2019-02-10T17:07:09.847Z,4.94
2019-02-10T17:09:37.702Z,4.96
2019-02-10T17:12:05.670Z,4.96
2019-02-10T17:14:33.529Z,4.95
2019-02-10T17:17:01.509Z,4.93
2019-02-10T17:19:29.390Z,4.73
2019-02-10T17:21:57.315Z,4.44
2019-02-10T17:24:25.390Z,4.20
2019-02-10T17:26:53.360Z,4.00
2019-02-10T17:29:21.254Z,3.91
2019-02-10T17:31:49.187Z,3.76
2019-02-10T17:34:17.093Z,3.78
2019-02-10T17:36:45.324Z,3.88
2019-02-10T17:39:17.516Z,3.88
2019-02-10T17:41:47.635Z,3.81
2019-02-10T17:44:15.623Z,3.83
2019-02-10T17:46:43.597Z,3.91
2019-02-10T17:49:11.795Z,3.93
2019-02-10T17:51:39.842Z,3.93
2019-02-10T17:54:07.717Z,3.98
2019-02-10T17:56:35.678Z,3.97
2019-02-10T17:59:03.707Z,3.99
2019-02-10T18:01:31.658Z,4.01
2019-02-10T18:03:59.561Z,4.02
2019-02-10T18:06:27.551Z,4.06
2019-02-10T18:08:55.493Z,4.09
2019-02-10T18:11:30.712Z,4.07
2019-02-10T18:13:53.332Z,4.10
2019-02-10T18:16:33.630Z,4.15
2019-02-10T18:19:14.862Z,4.02
2019-02-10T18:22:01.247Z,4.06
2019-02-10T18:24:47.682Z,3.99
2019-02-10T18:27:25.802Z,4.01
2019-02-10T18:30:13.558Z,3.97
2019-02-10T18:33:01.270Z,3.94
2019-02-10T18:35:40.052Z,3.90
2019-02-10T18:38:19.516Z,3.78
2019-02-10T18:41:06.596Z,3.78
2019-02-10T18:43:53.316Z,3.88
2019-02-10T18:46:31.037Z,3.71
2019-02-10T18:49:10.322Z,3.70
2019-02-10T18:51:57.830Z,3.65
2019-02-10T18:54:36.862Z,3.59
2019-02-10T18:57:27.401Z,3.59
2019-02-10T19:00:17.785Z,3.53
2019-02-10T19:03:05.286Z,3.50
2019-02-10T19:05:48.204Z,3.54
2019-02-10T19:08:34.647Z,3.55
2019-02-10T19:11:20.701Z,3.53
2019-02-10T19:14:04.220Z,3.52
2019-02-10T19:16:44.465Z,3.47
2019-02-10T19:19:35.011Z,3.37
2019-02-10T19:22:21.386Z,3.31
2019-02-10T19:25:11.525Z,3.14
2019-02-10T19:27:49.156Z,3.07
2019-02-10T19:30:43.073Z,3.05
2019-02-10T19:33:29.544Z,3.07
2019-02-10T19:36:15.909Z,2.93
2019-02-10T19:39:02.284Z,3.00
2019-02-10T19:41:55.491Z,2.97
2019-02-10T19:44:48.175Z,2.92
2019-02-10T19:47:44.797Z,2.90
2019-02-10T19:50:37.374Z,2.85
2019-02-10T19:53:22.208Z,2.89
2019-02-10T19:56:11.826Z,2.91
2019-02-10T19:58:47.919Z,2.98
2019-02-10T20:01:41.447Z,2.99
2019-02-10T20:04:44.109Z,3.02
2019-02-10T20:07:19.756Z,3.06
2019-02-10T20:10:25.451Z,3.08
2019-02-10T20:13:05.769Z,3.02
2019-02-10T20:15:55.086Z,2.99
2019-02-10T20:18:48.636Z,3.02
2019-02-10T20:21:27.121Z,3.11
2019-02-10T20:24:13.771Z,3.12
2019-02-10T20:27:16.475Z,3.18
2019-02-10T20:29:52.687Z,3.09
2019-02-10T20:32:31.086Z,3.19
2019-02-10T20:35:18.628Z,3.17
2019-02-10T20:38:08.364Z,3.12
2019-02-10T20:40:51.200Z,3.14
2019-02-10T20:43:33.221Z,3.11
2019-02-10T20:46:20.730Z,3.08
2019-02-10T20:49:07.207Z,3.08
2019-02-10T20:51:54.798Z,3.01
2019-02-10T20:54:38.223Z,2.98
2019-02-10T20:57:34.662Z,2.98
2019-02-10T21:00:25.555Z,3.00
2019-02-10T21:03:25.327Z,3.10
2019-02-10T21:06:11.505Z,3.09
2019-02-10T21:08:44.655Z,3.14
2019-02-10T21:11:30.761Z,3.23
2019-02-10T21:14:17.211Z,3.13
2019-02-10T21:17:04.957Z,3.23
2019-02-10T21:19:46.217Z,3.19
2019-02-10T21:22:25.146Z,3.24
2019-02-10T21:25:18.906Z,3.14
2019-02-10T21:28:12.429Z,3.17
2019-02-10T21:31:11.159Z,3.11
2019-02-10T21:34:01.537Z,3.02
2019-02-10T21:36:51.955Z,2.95
2019-02-10T21:39:42.538Z,2.88
2019-02-10T21:42:28.789Z,2.94
2019-02-10T21:45:12.209Z,2.93
2019-02-10T21:47:43.947Z,2.99
2019-02-10T21:50:11.920Z,3.05
2019-02-10T21:52:40.075Z,3.05
2019-02-10T21:55:08.230Z,3.07
2019-02-10T21:57:36.144Z,3.09
2019-02-10T22:00:06.024Z,3.11
2019-02-10T22:02:34.003Z,3.21
2019-02-10T22:05:01.926Z,3.21
2019-02-10T22:07:29.843Z,3.18
2019-02-10T22:09:57.748Z,3.16
2019-02-10T22:12:25.718Z,3.24
2019-02-10T22:14:53.583Z,3.28
2019-02-10T22:17:21.431Z,3.20
2019-02-10T22:19:49.714Z,3.19
2019-02-10T22:22:17.742Z,3.19
2019-02-10T22:24:45.603Z,3.27
2019-02-10T22:27:13.535Z,3.22
2019-02-10T22:29:41.474Z,3.23
2019-02-10T22:32:09.640Z,3.20
2019-02-10T22:34:37.604Z,3.18
2019-02-10T22:37:05.477Z,3.23
2019-02-10T22:39:33.386Z,3.26
2019-02-10T22:42:01.231Z,3.22
2019-02-10T22:44:29.120Z,3.22
2019-02-10T22:46:57.024Z,3.30
2019-02-10T22:49:24.904Z,3.26
2019-02-10T22:51:52.775Z,3.26
2019-02-10T22:54:20.667Z,3.31
2019-02-10T22:56:48.641Z,3.32
2019-02-10T22:59:16.503Z,3.40
2019-02-10T23:01:44.563Z,3.39
2019-02-10T23:04:12.446Z,3.29
2019-02-10T23:06:40.380Z,3.35
2019-02-10T23:09:13.160Z,3.34
2019-02-10T23:11:41.084Z,3.37
2019-02-10T23:14:08.926Z,3.39
2019-02-10T23:16:36.830Z,3.36
2019-02-10T23:19:04.696Z,3.41
2019-02-10T23:21:32.538Z,3.35
2019-02-10T23:24:00.713Z,3.44
2019-02-10T23:26:28.570Z,3.36
2019-02-10T23:28:56.454Z,3.35
2019-02-10T23:31:24.305Z,3.41
2019-02-10T23:33:52.186Z,3.37
2019-02-10T23:36:20.054Z,3.39
2019-02-10T23:38:47.921Z,3.39
2019-02-10T23:41:15.747Z,3.37
2019-02-10T23:43:43.615Z,3.30
2019-02-10T23:46:11.477Z,3.35
2019-02-10T23:48:39.409Z,3.35
2019-02-10T23:51:07.276Z,3.30
2019-02-10T23:53:35.132Z,3.21
2019-02-10T23:56:03.247Z,3.20
2019-02-10T23:58:31.090Z,3.23
